Time;durP1;ratioP1;P1;durP2;ratioP2;P2;SDS_P1;SDS_P2;PMS_P1;PMS_P2;Temp;Humidity;BMP_temperature;BMP_pressure;BME280_temperature;BME280_humidity;BME280_pressure;Samples;Min_cycle;Max_cycle;Signal;HPM_P1;HPM_P2
2021/12/11 00:00:39;;;;;;;;;;;;;;;;;;5085648;28;20344;-64
2021/12/11 00:03:04;;;;;;;;;;;;;;;;;;5080168;28;21501;-63
2021/12/11 00:05:29;;;;;;;;;;;;;;;;;;5082949;28;20010;-61
2021/12/11 00:07:54;;;;;;;;;;;;;;;;;;5085254;28;19920;-62
2021/12/11 00:10:20;;;;;;;;;;;;;;;;;;5085550;28;19947;-62
2021/12/11 00:12:45;;;;;;;;;;;;;;;;;;5081386;28;20307;-62
2021/12/11 00:15:10;;;;;;;;;;;;;;;;;;5067998;28;19923;-62
2021/12/11 00:17:35;;;;;;;;;;;;;;;;;;5087630;28;19916;-63
2021/12/11 00:20:00;;;;;;;;;;;;;;;;;;5064654;28;20404;-62
2021/12/11 00:22:25;;;;;;;;;;;;;;;;;;5080685;28;19942;-62
2021/12/11 00:24:50;;;;;;;;;;;;;;;;;;5083839;28;19912;-64
2021/12/11 00:27:15;;;;;;;;;;;;;;;;;;5081967;28;19927;-63
2021/12/11 00:29:40;;;;;;;;;;;;;;;;;;5082586;28;20012;-63
2021/12/11 00:32:05;;;;;;;;;;;;;;;;;;5083824;28;19920;-63
2021/12/11 00:34:31;;;;;;;;;;;;;;;;;;5067523;28;19978;-63
2021/12/11 00:36:56;;;;;;;;;;;;;;;;;;5066855;28;20359;-63
2021/12/11 00:39:21;;;;;;;;;;;;;;;;;;5072504;28;19919;-63
2021/12/11 00:41:52;;;;;;;;;;;;;;;;;;5064655;28;19985;-63
2021/12/11 00:44:17;;;;;;;;;;;;;;;;;;5067444;28;19998;-63
2021/12/11 00:46:42;;;;;;;;;;;;;;;;;;5062544;28;19912;-64
2021/12/11 00:49:08;;;;;;;;;;;;;;;;;;5066264;28;19952;-64
2021/12/11 00:51:33;;;;;;;;;;;;;;;;;;5063964;28;19936;-63
2021/12/11 00:53:58;;;;;;;;;;;;;;;;;;5064269;28;19921;-63
2021/12/11 00:56:23;;;;;;;;;;;;;;;;;;5066922;28;20001;-63
2021/12/11 00:58:48;;;;;;;;;;;;;;;;;;5063721;28;19917;-63
2021/12/11 01:01:13;;;;;;;;;;;;;;;;;;5063643;28;20018;-63
2021/12/11 01:03:38;;;;;;;;;;;;;;;;;;5065038;28;20015;-63
2021/12/11 01:06:03;;;;;;;;;;;;;;;;;;5060448;28;19967;-63
2021/12/11 01:08:28;;;;;;;;;;;;;;;;;;5062497;28;19965;-63
2021/12/11 01:10:53;;;;;;;;;;;;;;;;;;5065101;28;20460;-64
2021/12/11 01:13:23;;;;;;;;;;;;;;;;;;5063089;28;20388;-63
2021/12/11 01:15:49;;;;;;;;;;;;;;;;;;5065914;28;19924;-63
2021/12/11 01:20:48;;;;;;;;;;;;;;;;;;5065857;28;19963;-64
2021/12/11 01:23:28;;;;;;;;;;;;;;;;;;5066677;28;19948;-63
2021/12/11 01:25:53;;;;;;;;;;;;;;;;;;5059623;28;19928;-63
2021/12/11 01:28:19;;;;;;;;;;;;;;;;;;5060628;28;19913;-63
2021/12/11 01:30:44;;;;;;;;;;;;;;;;;;5061907;28;19913;-63
2021/12/11 01:33:09;;;;;;;;;;;;;;;;;;5066669;28;19924;-63
2021/12/11 01:35:34;;;;;;;;;;;;;;;;;;5080341;28;19951;-63
2021/12/11 01:37:59;;;;;;;;;;;;;;;;;;5086960;28;20489;-63
2021/12/11 01:40:25;;;;;;;;;;;;;;;;;;5085287;28;20418;-63
2021/12/11 01:42:50;;;;;;;;;;;;;;;;;;5081971;28;20403;-63
2021/12/11 01:45:16;;;;;;;;;;;;;;;;;;5086197;28;19922;-63
2021/12/11 01:47:41;;;;;;;;;;;;;;;;;;5080039;28;19961;-63
2021/12/11 01:50:06;;;;;;;;;;;;;;;;;;5086507;28;19927;-63
2021/12/11 01:52:36;;;;;;;;;;;;;;;;;;5081636;28;19916;-63
2021/12/11 01:55:02;;;;;;;;;;;;;;;;;;5080648;28;19954;-63
2021/12/11 01:57:27;;;;;;;;;;;;;;;;;;5081662;28;19912;-62
2021/12/11 01:59:53;;;;;;;;;;;;;;;;;;5078390;28;19912;-63
2021/12/11 02:02:19;;;;;;;;;;;;;;;;;;5080303;28;19965;-63
2021/12/11 02:04:44;;;;;;;;;;;;;;;;;;5085634;28;19916;-63
2021/12/11 02:07:09;;;;;;;;;;;;;;;;;;5078476;28;19913;-63
2021/12/11 02:09:34;;;;;;;;;;;;;;;;;;5078653;28;19920;-63
2021/12/11 02:11:59;;;;;;;;;;;;;;;;;;5081238;28;20008;-62
2021/12/11 02:14:32;;;;;;;;;;;;;;;;;;5083676;28;19920;-62
2021/12/11 02:16:59;;;;;;;;;;;;;;;;;;5084564;28;20356;-62
2021/12/11 02:19:28;;;;;;;;;;;;;;;;;;5084846;28;19914;-63
2021/12/11 02:21:55;;;;;;;;;;;;;;;;;;5081787;28;19942;-62
2021/12/11 02:24:24;;;;;;;;;;;;;;;;;;5084557;28;19916;-62
2021/12/11 02:26:49;;;;;;;;;;;;;;;;;;5082508;28;19913;-62
2021/12/11 02:29:14;;;;;;;;;;;;;;;;;;5082428;28;19923;-63
2021/12/11 02:31:39;;;;;;;;;;;;;;;;;;5086515;28;19912;-62
2021/12/11 02:34:08;;;;;;;;;;;;;;;;;;5083943;28;19924;-62
2021/12/11 02:36:33;;;;;;;;;;;;;;;;;;5085561;28;19912;-62
2021/12/11 02:38:59;;;;;;;;;;;;;;;;;;5077335;28;19935;-62
2021/12/11 02:41:24;;;;;;;;;;;;;;;;;;5086414;28;20010;-62
2021/12/11 02:43:49;;;;;;;;;;;;;;;;;;5084369;28;20303;-62
2021/12/11 02:46:14;;;;;;;;;;;;;;;;;;5086930;28;19919;-62
2021/12/11 02:48:39;;;;;;;;;;;;;;;;;;5085164;28;20295;-62
2021/12/11 02:51:04;;;;;;;;;;;;;;;;;;5081748;28;19919;-63
2021/12/11 02:53:29;;;;;;;;;;;;;;;;;;5081599;28;19926;-63
2021/12/11 02:55:54;;;;;;;;;;;;;;;;;;5081447;28;19913;-63
2021/12/11 02:58:20;;;;;;;;;;;;;;;;;;5079765;28;19912;-63
2021/12/11 03:00:45;;;;;;;;;;;;;;;;;;5081820;28;19969;-63
2021/12/11 03:03:10;;;;;;;;;;;;;;;;;;5083988;28;19963;-64
2021/12/11 03:05:46;;;;;;;;;;;;;;;;;;5084531;28;19912;-62
2021/12/11 03:08:11;;;;;;;;;;;;;;;;;;5082560;28;19912;-62
2021/12/11 03:10:36;;;;;;;;;;;;;;;;;;5079944;28;20283;-62
2021/12/11 03:13:01;;;;;;;;;;;;;;;;;;5086675;28;19983;-63
2021/12/11 03:15:26;;;;;;;;;;;;;;;;;;5087087;28;19912;-63
2021/12/11 03:17:51;;;;;;;;;;;;;;;;;;5088060;28;19927;-63
2021/12/11 03:20:17;;;;;;;;;;;;;;;;;;5090350;28;19916;-63
2021/12/11 03:22:43;;;;;;;;;;;;;;;;;;5085279;28;20006;-63
2021/12/11 03:25:08;;;;;;;;;;;;;;;;;;5085824;28;19912;-63
2021/12/11 03:27:33;;;;;;;;;;;;;;;;;;5088150;28;19912;-63
2021/12/11 03:29:58;;;;;;;;;;;;;;;;;;5086321;28;19995;-63
2021/12/11 03:32:23;;;;;;;;;;;;;;;;;;5081649;28;19938;-63
2021/12/11 03:34:48;;;;;;;;;;;;;;;;;;5063660;28;20007;-63
2021/12/11 03:37:13;;;;;;;;;;;;;;;;;;5066083;28;19913;-63
2021/12/11 03:39:38;;;;;;;;;;;;;;;;;;5063154;28;19913;-62
2021/12/11 03:42:03;;;;;;;;;;;;;;;;;;5064108;28;19917;-62
2021/12/11 03:44:32;;;;;;;;;;;;;;;;;;5067670;28;19920;-62
2021/12/11 03:46:58;;;;;;;;;;;;;;;;;;5068145;28;19924;-62
2021/12/11 03:49:23;;;;;;;;;;;;;;;;;;5070852;28;19912;-63
2021/12/11 03:51:48;;;;;;;;;;;;;;;;;;5067039;28;19920;-62
2021/12/11 03:54:13;;;;;;;;;;;;;;;;;;5070035;28;20288;-63
2021/12/11 03:56:38;;;;;;;;;;;;;;;;;;5063550;28;20404;-63
2021/12/11 03:59:08;;;;;;;;;;;;;;;;;;5060164;28;20003;-63
2021/12/11 04:01:33;;;;;;;;;;;;;;;;;;5065711;28;19925;-63
2021/12/11 04:03:58;;;;;;;;;;;;;;;;;;5065943;28;19919;-63
2021/12/11 04:06:23;;;;;;;;;;;;;;;;;;5055761;28;19959;-63
2021/12/11 04:08:49;;;;;;;;;;;;;;;;;;5064177;28;19917;-63
2021/12/11 04:11:14;;;;;;;;;;;;;;;;;;5060669;28;19920;-63
2021/12/11 04:13:39;;;;;;;;;;;;;;;;;;5067221;28;19912;-63
2021/12/11 04:16:04;;;;;;;;;;;;;;;;;;5068785;28;20261;-63
2021/12/11 04:18:29;;;;;;;;;;;;;;;;;;5063831;28;20380;-63
2021/12/11 04:20:54;;;;;;;;;;;;;;;;;;5048853;28;19925;-61
2021/12/11 04:23:19;;;;;;;;;;;;;;;;;;5063206;28;19999;-62
2021/12/11 04:25:44;;;;;;;;;;;;;;;;;;5069920;28;19916;-62
2021/12/11 04:28:09;;;;;;;;;;;;;;;;;;5063052;28;19912;-62
2021/12/11 04:30:34;;;;;;;;;;;;;;;;;;5057112;28;20378;-62
2021/12/11 04:33:00;;;;;;;;;;;;;;;;;;5067116;28;19923;-62
2021/12/11 04:35:29;;;;;;;;;;;;;;;;;;5085338;28;19931;-62
2021/12/11 04:37:54;;;;;;;;;;;;;;;;;;5081711;28;19912;-62
2021/12/11 04:40:19;;;;;;;;;;;;;;;;;;5086905;28;19916;-62
2021/12/11 04:42:58;;;;;;;;;;;;;;;;;;5090892;28;20389;-62
2021/12/11 04:45:23;;;;;;;;;;;;;;;;;;5083353;28;19912;-62
2021/12/11 04:47:58;;;;;;;;;;;;;;;;;;5079756;28;20374;-62
2021/12/11 04:50:30;;;;;;;;;;;;;;;;;;5084186;28;19924;-62
2021/12/11 04:52:56;;;;;;;;;;;;;;;;;;5078246;28;19916;-62
2021/12/11 04:58:22;;;;;;;;;;;;;;;;;;5083948;28;20360;-63
2021/12/11 05:01:00;;;;;;;;;;;;;;;;;;5080178;28;20382;-62
2021/12/11 05:03:47;;;;;;;;;;;;;;;;;;5081433;28;19916;-62
2021/12/11 05:11:33;;;;;;;;;;;;;;;;;;5087784;28;19958;-62
2021/12/11 05:13:58;;;;;;;;;;;;;;;;;;5083849;28;20003;-62
2021/12/11 05:16:23;;;;;;;;;;;;;;;;;;5083419;28;20003;-63
2021/12/11 05:18:48;;;;;;;;;;;;;;;;;;5075417;28;19973;-62
2021/12/11 05:21:14;;;;;;;;;;;;;;;;;;5089391;28;20331;-62
2021/12/11 05:23:39;;;;;;;;;;;;;;;;;;5069309;28;19913;-62
2021/12/11 05:26:04;;;;;;;;;;;;;;;;;;5088914;28;19912;-62
2021/12/11 05:28:29;;;;;;;;;;;;;;;;;;5088346;28;20338;-62
2021/12/11 05:30:54;;;;;;;;;;;;;;;;;;5076851;28;19952;-62
2021/12/11 05:33:19;;;;;;;;;;;;;;;;;;5075427;28;19916;-63
2021/12/11 05:35:44;;;;;;;;;;;;;;;;;;5085366;28;19919;-63
2021/12/11 05:38:09;;;;;;;;;;;;;;;;;;5081118;28;19963;-63
2021/12/11 05:40:34;;;;;;;;;;;;;;;;;;5083075;28;19917;-63
2021/12/11 05:42:59;;;;;;;;;;;;;;;;;;5090588;28;19927;-63
2021/12/11 05:45:24;;;;;;;;;;;;;;;;;;5084426;28;19920;-63
2021/12/11 05:47:50;;;;;;;;;;;;;;;;;;5081065;28;19912;-63
2021/12/11 05:50:15;;;;;;;;;;;;;;;;;;5084427;28;19916;-63
2021/12/11 05:52:40;;;;;;;;;;;;;;;;;;5085631;28;20333;-63
2021/12/11 05:55:07;;;;;;;;;;;;;;;;;;5084049;28;19923;-64
2021/12/11 05:57:34;;;;;;;;;;;;;;;;;;5080858;28;20041;-64
2021/12/11 05:59:59;;;;;;;;;;;;;;;;;;5069806;28;19998;-63
2021/12/11 06:02:24;;;;;;;;;;;;;;;;;;5086309;28;20006;-63
2021/12/11 06:04:50;;;;;;;;;;;;;;;;;;5089504;28;19912;-63
2021/12/11 06:07:15;;;;;;;;;;;;;;;;;;5086918;28;19921;-61
2021/12/11 06:09:40;;;;;;;;;;;;;;;;;;5076900;28;20398;-61
2021/12/11 06:12:05;;;;;;;;;;;;;;;;;;5082618;28;19924;-61
2021/12/11 06:14:31;;;;;;;;;;;;;;;;;;5086683;28;20023;-61
2021/12/11 06:16:56;;;;;;;;;;;;;;;;;;5084954;28;19916;-61
2021/12/11 06:19:22;;;;;;;;;;;;;;;;;;5081726;28;20360;-60
2021/12/11 06:21:47;;;;;;;;;;;;;;;;;;5067431;28;19916;-61
2021/12/11 06:24:12;;;;;;;;;;;;;;;;;;5080805;28;19951;-62
2021/12/11 06:26:37;;;;;;;;;;;;;;;;;;5082160;28;20410;-62
2021/12/11 06:29:02;;;;;;;;;;;;;;;;;;5084223;28;20010;-61
2021/12/11 06:31:27;;;;;;;;;;;;;;;;;;5086036;28;20333;-61
2021/12/11 06:33:52;;;;;;;;;;;;;;;;;;5085865;28;19935;-61
2021/12/11 06:36:17;;;;;;;;;;;;;;;;;;5084726;28;19912;-61
2021/12/11 06:38:43;;;;;;;;;;;;;;;;;;5087997;28;19912;-61
2021/12/11 06:41:08;;;;;;;;;;;;;;;;;;5085093;28;19924;-62
2021/12/11 06:43:33;;;;;;;;;;;;;;;;;;5082413;28;19920;-62
2021/12/11 06:45:58;;;;;;;;;;;;;;;;;;5087779;28;19916;-63
2021/12/11 06:48:23;;;;;;;;;;;;;;;;;;5094346;28;19916;-62
2021/12/11 06:50:48;;;;;;;;;;;;;;;;;;5082088;28;19911;-62
2021/12/11 06:53:13;;;;;;;;;;;;;;;;;;5072657;28;19920;-62
2021/12/11 06:55:38;;;;;;;;;;;;;;;;;;5086715;28;20019;-62
2021/12/11 06:58:03;;;;;;;;;;;;;;;;;;5082907;28;19924;-62
2021/12/11 07:00:28;;;;;;;;;;;;;;;;;;5080713;28;20368;-62
2021/12/11 07:02:54;;;;;;;;;;;;;;;;;;5088570;28;19912;-62
2021/12/11 07:05:19;;;;;;;;;;;;;;;;;;5083104;28;19920;-62
2021/12/11 07:07:44;;;;;;;;;;;;;;;;;;5083653;28;19919;-62
2021/12/11 07:10:09;;;;;;;;;;;;;;;;;;5067734;28;19974;-61
2021/12/11 07:12:34;;;;;;;;;;;;;;;;;;5077448;28;19988;-62
2021/12/11 07:14:59;;;;;;;;;;;;;;;;;;5068552;28;19970;-62
2021/12/11 07:17:24;;;;;;;;;;;;;;;;;;5074847;28;19912;-62
2021/12/11 07:19:49;;;;;;;;;;;;;;;;;;5087065;28;19913;-62
2021/12/11 07:22:14;;;;;;;;;;;;;;;;;;5084047;28;19916;-62
2021/12/11 07:24:39;;;;;;;;;;;;;;;;;;5086999;28;19957;-62
2021/12/11 07:27:05;;;;;;;;;;;;;;;;;;5080777;28;19924;-62
2021/12/11 07:29:30;;;;;;;;;;;;;;;;;;5087225;28;19912;-62
2021/12/11 07:31:56;;;;;;;;;;;;;;;;;;5087528;28;19962;-62
2021/12/11 07:34:21;;;;;;;;;;;;;;;;;;5083552;28;19920;-62
2021/12/11 07:36:46;;;;;;;;;;;;;;;;;;5065008;28;19916;-62
2021/12/11 07:39:11;;;;;;;;;;;;;;;;;;5081238;28;19912;-62
2021/12/11 07:41:36;;;;;;;;;;;;;;;;;;5079261;28;20746;-62
2021/12/11 07:44:02;;;;;;;;;;;;;;;;;;5079597;28;19920;-62
2021/12/11 07:46:27;;;;;;;;;;;;;;;;;;5085545;28;19919;-62
2021/12/11 07:48:52;;;;;;;;;;;;;;;;;;5081447;28;20000;-62
2021/12/11 07:51:17;;;;;;;;;;;;;;;;;;5084473;28;19923;-62
2021/12/11 07:53:42;;;;;;;;;;;;;;;;;;5079560;28;19922;-62
2021/12/11 07:56:07;;;;;;;;;;;;;;;;;;5078937;28;20372;-62
2021/12/11 07:58:34;;;;;;;;;;;;;;;;;;5074573;28;22110;-62
2021/12/11 08:00:59;;;;;;;;;;;;;;;;;;5078796;28;19978;-62
2021/12/11 08:03:24;;;;;;;;;;;;;;;;;;5080636;28;19916;-62
2021/12/11 08:05:49;;;;;;;;;;;;;;;;;;5093204;28;20583;-62
2021/12/11 08:08:15;;;;;;;;;;;;;;;;;;5081197;28;19920;-63
2021/12/11 08:10:40;;;;;;;;;;;;;;;;;;5080131;28;19927;-62
2021/12/11 08:13:06;;;;;;;;;;;;;;;;;;5072719;28;19920;-62
2021/12/11 08:15:31;;;;;;;;;;;;;;;;;;5066875;28;20291;-62
2021/12/11 08:17:56;;;;;;;;;;;;;;;;;;5086825;28;19920;-62
2021/12/11 08:20:21;;;;;;;;;;;;;;;;;;5089470;28;19916;-62
2021/12/11 08:22:46;;;;;;;;;;;;;;;;;;5073374;28;19952;-63
2021/12/11 08:25:11;;;;;;;;;;;;;;;;;;5085370;28;19916;-62
2021/12/11 08:27:36;;;;;;;;;;;;;;;;;;5082216;28;19923;-63
2021/12/11 08:30:01;;;;;;;;;;;;;;;;;;5072744;28;19917;-62
2021/12/11 08:32:26;;;;;;;;;;;;;;;;;;5077739;28;19912;-62
2021/12/11 08:34:51;;;;;;;;;;;;;;;;;;5081827;28;19989;-62
2021/12/11 08:37:16;;;;;;;;;;;;;;;;;;5086417;28;20267;-62
2021/12/11 08:39:42;;;;;;;;;;;;;;;;;;5083388;28;19955;-62
2021/12/11 08:42:07;;;;;;;;;;;;;;;;;;5072883;28;19920;-62
2021/12/11 08:44:35;;;;;;;;;;;;;;;;;;5074266;28;20045;-62
2021/12/11 08:47:01;;;;;;;;;;;;;;;;;;5076204;28;19912;-62
2021/12/11 08:49:26;;;;;;;;;;;;;;;;;;5070099;28;19927;-62
2021/12/11 08:51:51;;;;;;;;;;;;;;;;;;5081966;28;20336;-62
2021/12/11 08:54:16;;;;;;;;;;;;;;;;;;5080845;28;19919;-62
2021/12/11 08:56:41;;;;;;;;;;;;;;;;;;5077655;28;19912;-62
2021/12/11 08:59:06;;;;;;;;;;;;;;;;;;5081813;28;19943;-62
2021/12/11 09:01:31;;;;;;;;;;;;;;;;;;5081274;28;19924;-62
2021/12/11 09:03:56;;;;;;;;;;;;;;;;;;5086011;28;19912;-62
2021/12/11 09:06:21;;;;;;;;;;;;;;;;;;5068656;28;19912;-63
2021/12/11 09:08:46;;;;;;;;;;;;;;;;;;5084711;28;19912;-62
2021/12/11 09:11:12;;;;;;;;;;;;;;;;;;5075653;28;20376;-62
2021/12/11 09:13:38;;;;;;;;;;;;;;;;;;5084626;28;20086;-62
2021/12/11 09:16:03;;;;;;;;;;;;;;;;;;5072568;28;19916;-62
2021/12/11 09:18:29;;;;;;;;;;;;;;;;;;5071990;28;19958;-62
2021/12/11 09:20:54;;;;;;;;;;;;;;;;;;5071742;28;19935;-62
2021/12/11 09:23:19;;;;;;;;;;;;;;;;;;5067072;28;19950;-63
2021/12/11 09:25:44;;;;;;;;;;;;;;;;;;5078658;28;19920;-62
2021/12/11 09:28:09;;;;;;;;;;;;;;;;;;5071219;28;20001;-63
2021/12/11 09:30:34;;;;;;;;;;;;;;;;;;5066851;28;20306;-63
2021/12/11 09:32:59;;;;;;;;;;;;;;;;;;5080486;28;19928;-63
2021/12/11 09:35:24;;;;;;;;;;;;;;;;;;5061307;28;20519;-63
2021/12/11 09:37:49;;;;;;;;;;;;;;;;;;5049747;28;19917;-63
2021/12/11 09:40:15;;;;;;;;;;;;;;;;;;5052526;28;19924;-63
2021/12/11 09:42:40;;;;;;;;;;;;;;;;;;5048620;28;19928;-63
2021/12/11 09:45:05;;;;;;;;;;;;;;;;;;5067131;28;19924;-63
2021/12/11 09:47:31;;;;;;;;;;;;;;;;;;5057309;28;19920;-63
2021/12/11 09:49:58;;;;;;;;;;;;;;;;;;5052325;28;21058;-63
2021/12/11 09:52:23;;;;;;;;;;;;;;;;;;5060714;28;19921;-63
2021/12/11 09:54:49;;;;;;;;;;;;;;;;;;5057615;28;19913;-63
2021/12/11 09:57:14;;;;;;;;;;;;;;;;;;5056429;28;19924;-63
2021/12/11 09:59:39;;;;;;;;;;;;;;;;;;5065897;28;19966;-63
2021/12/11 10:02:04;;;;;;;;;;;;;;;;;;5059770;28;19923;-63
2021/12/11 10:04:32;;;;;;;;;;;;;;;;;;5059855;28;19967;-63
2021/12/11 10:09:22;;;;;;;;;;;;;;;;;;5058296;28;20396;-63
2021/12/11 10:11:47;;;;;;;;;;;;;;;;;;5063557;28;19923;-63
2021/12/11 10:14:12;;;;;;;;;;;;;;;;;;5066469;28;20423;-63
2021/12/11 10:16:37;;;;;;;;;;;;;;;;;;5063133;28;19913;-63
2021/12/11 10:19:02;;;;;;;;;;;;;;;;;;5059028;28;19916;-63
2021/12/11 10:21:27;;;;;;;;;;;;;;;;;;5066555;28;20060;-63
2021/12/11 10:23:52;;;;;;;;;;;;;;;;;;5060814;28;19995;-63
2021/12/11 10:26:18;;;;;;;;;;;;;;;;;;5059124;28;19921;-63
2021/12/11 10:28:44;;;;;;;;;;;;;;;;;;5059962;28;19920;-63
2021/12/11 10:31:09;;;;;;;;;;;;;;;;;;5056989;28;19913;-63
2021/12/11 10:33:34;;;;;;;;;;;;;;;;;;5068070;28;19924;-63
2021/12/11 10:35:59;;;;;;;;;;;;;;;;;;5084082;28;19965;-63
2021/12/11 10:38:24;;;;;;;;;;;;;;;;;;5081358;28;19920;-63
2021/12/11 10:40:49;;;;;;;;;;;;;;;;;;5080651;28;20277;-63
2021/12/11 10:43:14;;;;;;;;;;;;;;;;;;5073781;28;20006;-63
2021/12/11 10:45:39;;;;;;;;;;;;;;;;;;5074979;28;19908;-63
2021/12/11 10:48:04;;;;;;;;;;;;;;;;;;5077951;28;19912;-63
2021/12/11 10:50:29;;;;;;;;;;;;;;;;;;5080403;28;20984;-63
2021/12/11 10:52:54;;;;;;;;;;;;;;;;;;5073561;28;20469;-63
2021/12/11 10:55:20;;;;;;;;;;;;;;;;;;5084109;28;20379;-63
2021/12/11 10:57:45;;;;;;;;;;;;;;;;;;5081341;28;19930;-63
2021/12/11 11:00:10;;;;;;;;;;;;;;;;;;5082594;28;19911;-63
2021/12/11 11:02:35;;;;;;;;;;;;;;;;;;5084580;28;19927;-63
2021/12/11 11:05:00;;;;;;;;;;;;;;;;;;5087960;28;20367;-63
2021/12/11 11:07:25;;;;;;;;;;;;;;;;;;5083603;28;19916;-64
2021/12/11 11:09:50;;;;;;;;;;;;;;;;;;5082423;28;19951;-63
2021/12/11 11:12:15;;;;;;;;;;;;;;;;;;5087329;28;19916;-63
2021/12/11 11:14:40;;;;;;;;;;;;;;;;;;5081139;28;19924;-63
2021/12/11 11:17:05;;;;;;;;;;;;;;;;;;5082654;28;20016;-63
2021/12/11 11:19:30;;;;;;;;;;;;;;;;;;5083501;28;19921;-63
2021/12/11 11:21:57;;;;;;;;;;;;;;;;;;5087691;28;19982;-63
2021/12/11 11:24:22;;;;;;;;;;;;;;;;;;5083531;28;20395;-63
2021/12/11 11:26:48;;;;;;;;;;;;;;;;;;5089837;28;19948;-63
2021/12/11 11:29:13;;;;;;;;;;;;;;;;;;5087027;28;19912;-63
2021/12/11 11:31:39;;;;;;;;;;;;;;;;;;5084541;28;19923;-63
2021/12/11 11:34:04;;;;;;;;;;;;;;;;;;5090176;28;19928;-63
2021/12/11 11:36:30;;;;;;;;;;;;;;;;;;5088333;28;19942;-63
2021/12/11 11:38:55;;;;;;;;;;;;;;;;;;5087506;28;20015;-63
2021/12/11 11:41:21;;;;;;;;;;;;;;;;;;5088811;28;19998;-63
2021/12/11 11:43:46;;;;;;;;;;;;;;;;;;5088366;28;19912;-63
2021/12/11 11:46:11;;;;;;;;;;;;;;;;;;5085163;28;19919;-63
2021/12/11 11:48:36;;;;;;;;;;;;;;;;;;5084337;28;20287;-63
2021/12/11 11:51:01;;;;;;;;;;;;;;;;;;5086063;28;19916;-64
2021/12/11 11:53:26;;;;;;;;;;;;;;;;;;5085834;28;19962;-63
2021/12/11 11:55:51;;;;;;;;;;;;;;;;;;5090785;28;19920;-63
2021/12/11 11:58:16;;;;;;;;;;;;;;;;;;5086886;28;20391;-63
2021/12/11 12:00:43;;;;;;;;;;;;;;;;;;5085494;28;19923;-63
2021/12/11 12:03:08;;;;;;;;;;;;;;;;;;5088524;28;19946;-63
2021/12/11 12:05:36;;;;;;;;;;;;;;;;;;5084229;28;19912;-63
2021/12/11 12:08:01;;;;;;;;;;;;;;;;;;5085747;28;19912;-64
2021/12/11 12:10:26;;;;;;;;;;;;;;;;;;5087470;28;19922;-64
2021/12/11 12:12:51;;;;;;;;;;;;;;;;;;5086421;28;20427;-63
2021/12/11 12:15:16;;;;;;;;;;;;;;;;;;5083348;28;19912;-63
2021/12/11 12:17:41;;;;;;;;;;;;;;;;;;5086839;28;19968;-63
2021/12/11 12:20:06;;;;;;;;;;;;;;;;;;5084092;28;19944;-63
2021/12/11 12:22:31;;;;;;;;;;;;;;;;;;5082883;28;19912;-63
2021/12/11 12:24:56;;;;;;;;;;;;;;;;;;5089561;28;19973;-63
2021/12/11 12:27:21;;;;;;;;;;;;;;;;;;5082784;28;19962;-63
2021/12/11 12:29:46;;;;;;;;;;;;;;;;;;5085139;28;20010;-63
2021/12/11 12:32:11;;;;;;;;;;;;;;;;;;5087129;28;19916;-63
2021/12/11 12:34:37;;;;;;;;;;;;;;;;;;5084955;28;19924;-63
2021/12/11 12:37:02;;;;;;;;;;;;;;;;;;5089336;28;19912;-63
2021/12/11 12:39:27;;;;;;;;;;;;;;;;;;5087636;28;19912;-63
2021/12/11 12:41:57;;;;;;;;;;;;;;;;;;5082960;28;19939;-64
2021/12/11 12:44:23;;;;;;;;;;;;;;;;;;5089058;28;20375;-63
2021/12/11 12:46:48;;;;;;;;;;;;;;;;;;5086666;28;19912;-64
2021/12/11 12:49:13;;;;;;;;;;;;;;;;;;5086204;28;19963;-64
2021/12/11 12:51:38;;;;;;;;;;;;;;;;;;5085875;28;19912;-64
2021/12/11 12:54:03;;;;;;;;;;;;;;;;;;5089331;28;19912;-64
2021/12/11 12:56:29;;;;;;;;;;;;;;;;;;5087787;28;20011;-63
2021/12/11 12:58:54;;;;;;;;;;;;;;;;;;5091684;28;20295;-63
2021/12/11 13:01:19;;;;;;;;;;;;;;;;;;5083093;28;19916;-63
2021/12/11 13:03:44;;;;;;;;;;;;;;;;;;5083349;28;19923;-63
2021/12/11 13:06:09;;;;;;;;;;;;;;;;;;5087112;28;19922;-63
2021/12/11 13:08:34;;;;;;;;;;;;;;;;;;5081024;28;19920;-63
2021/12/11 13:10:59;;;;;;;;;;;;;;;;;;5083180;28;20589;-63
2021/12/11 13:13:24;;;;;;;;;;;;;;;;;;5086154;28;19967;-64
2021/12/11 13:15:49;;;;;;;;;;;;;;;;;;5088856;28;21609;-64
2021/12/11 13:18:15;;;;;;;;;;;;;;;;;;5085048;28;19990;-64
2021/12/11 13:20:40;;;;;;;;;;;;;;;;;;5087792;28;20493;-63
2021/12/11 13:23:05;;;;;;;;;;;;;;;;;;5087265;28;19981;-63
2021/12/11 13:25:30;;;;;;;;;;;;;;;;;;5087008;28;20292;-63
2021/12/11 13:27:55;;;;;;;;;;;;;;;;;;5083414;28;19978;-64
2021/12/11 13:30:20;;;;;;;;;;;;;;;;;;5084366;28;19912;-64
2021/12/11 13:32:47;;;;;;;;;;;;;;;;;;5086867;28;19938;-63
2021/12/11 13:35:12;;;;;;;;;;;;;;;;;;5086596;28;19927;-64
2021/12/11 13:37:38;;;;;;;;;;;;;;;;;;5083412;28;19916;-63
2021/12/11 13:40:03;;;;;;;;;;;;;;;;;;5081132;28;19913;-63
2021/12/11 13:42:28;;;;;;;;;;;;;;;;;;5087983;28;19912;-63
2021/12/11 13:44:53;;;;;;;;;;;;;;;;;;5086477;28;19965;-63
2021/12/11 13:47:18;;;;;;;;;;;;;;;;;;5083023;28;19935;-63
2021/12/11 13:49:43;;;;;;;;;;;;;;;;;;5082960;28;19916;-63
2021/12/11 13:52:08;;;;;;;;;;;;;;;;;;5074374;28;19919;-63
2021/12/11 13:54:33;;;;;;;;;;;;;;;;;;5085350;28;19964;-63
2021/12/11 13:56:58;;;;;;;;;;;;;;;;;;5091572;28;20258;-63
2021/12/11 13:59:23;;;;;;;;;;;;;;;;;;5083398;28;20405;-63
2021/12/11 14:01:49;;;;;;;;;;;;;;;;;;5083658;28;19920;-63
2021/12/11 14:04:14;;;;;;;;;;;;;;;;;;5087898;28;20000;-63
2021/12/11 14:06:47;;;;;;;;;;;;;;;;;;5081784;28;19920;-63
2021/12/11 14:09:12;;;;;;;;;;;;;;;;;;5086688;28;20285;-63
2021/12/11 14:11:37;;;;;;;;;;;;;;;;;;5083506;28;20402;-63
2021/12/11 14:14:03;;;;;;;;;;;;;;;;;;5084448;28;20056;-63
2021/12/11 14:16:28;;;;;;;;;;;;;;;;;;5083413;28;20295;-63
2021/12/11 14:18:53;;;;;;;;;;;;;;;;;;5085755;28;19920;-63
2021/12/11 14:21:18;;;;;;;;;;;;;;;;;;5085268;28;19924;-64
2021/12/11 14:23:45;;;;;;;;;;;;;;;;;;5080803;28;19919;-63
2021/12/11 14:26:10;;;;;;;;;;;;;;;;;;5088761;28;19920;-63
2021/12/11 14:28:35;;;;;;;;;;;;;;;;;;5085478;28;19920;-63
2021/12/11 14:31:00;;;;;;;;;;;;;;;;;;5079415;28;19912;-63
2021/12/11 14:33:25;;;;;;;;;;;;;;;;;;5084261;28;19923;-62
2021/12/11 14:35:51;;;;;;;;;;;;;;;;;;5086207;28;19920;-62
2021/12/11 14:38:16;;;;;;;;;;;;;;;;;;5066258;28;19913;-63
2021/12/11 14:40:41;;;;;;;;;;;;;;;;;;5083409;28;19923;-63
2021/12/11 14:43:06;;;;;;;;;;;;;;;;;;5078083;28;19955;-63
2021/12/11 14:45:31;;;;;;;;;;;;;;;;;;5087274;28;19994;-63
2021/12/11 14:47:56;;;;;;;;;;;;;;;;;;5083390;28;19912;-63
2021/12/11 14:50:21;;;;;;;;;;;;;;;;;;5085994;28;19916;-63
2021/12/11 14:52:46;;;;;;;;;;;;;;;;;;5084774;28;19935;-63
2021/12/11 14:55:11;;;;;;;;;;;;;;;;;;5084698;28;19916;-63
2021/12/11 14:57:37;;;;;;;;;;;;;;;;;;5088133;28;19920;-62
2021/12/11 15:00:02;;;;;;;;;;;;;;;;;;5087760;28;19916;-63
2021/12/11 15:02:27;;;;;;;;;;;;;;;;;;5086839;28;19947;-63
2021/12/11 15:04:52;;;;;;;;;;;;;;;;;;5084814;28;20003;-63
2021/12/11 15:07:17;;;;;;;;;;;;;;;;;;5085491;28;19920;-63
2021/12/11 15:09:43;;;;;;;;;;;;;;;;;;5086633;28;20296;-63
2021/12/11 15:12:08;;;;;;;;;;;;;;;;;;5084128;28;19912;-64
2021/12/11 15:14:33;;;;;;;;;;;;;;;;;;5086460;28;19912;-63
2021/12/11 15:16:58;;;;;;;;;;;;;;;;;;5082308;28;20414;-63
2021/12/11 15:19:24;;;;;;;;;;;;;;;;;;5082851;28;19912;-63
2021/12/11 15:21:49;;;;;;;;;;;;;;;;;;5088137;28;19916;-63
2021/12/11 15:24:14;;;;;;;;;;;;;;;;;;5090522;28;20388;-64
2021/12/11 15:26:39;;;;;;;;;;;;;;;;;;5089173;28;19991;-63
2021/12/11 15:29:04;;;;;;;;;;;;;;;;;;5086111;28;19981;-63
2021/12/11 15:31:29;;;;;;;;;;;;;;;;;;5092095;28;20273;-63
2021/12/11 15:33:54;;;;;;;;;;;;;;;;;;5083549;28;19916;-64
2021/12/11 15:36:19;;;;;;;;;;;;;;;;;;5086291;28;19924;-66
2021/12/11 15:38:44;;;;;;;;;;;;;;;;;;5099758;28;19916;-65
2021/12/11 15:41:10;;;;;;;;;;;;;;;;;;5083037;28;19916;-66
2021/12/11 15:43:36;;;;;;;;;;;;;;;;;;5089267;28;19920;-65
2021/12/11 15:46:01;;;;;;;;;;;;;;;;;;5091260;28;19919;-65
2021/12/11 15:48:26;;;;;;;;;;;;;;;;;;5087352;28;19916;-64
2021/12/11 15:50:51;;;;;;;;;;;;;;;;;;5086137;28;19952;-66
2021/12/11 15:53:16;;;;;;;;;;;;;;;;;;5077950;28;19962;-65
2021/12/11 15:55:44;;;;;;;;;;;;;;;;;;5083325;28;19964;-65
2021/12/11 15:58:09;;;;;;;;;;;;;;;;;;5085427;28;19912;-66
2021/12/11 16:00:34;;;;;;;;;;;;;;;;;;5085816;28;19916;-65
2021/12/11 16:02:59;;;;;;;;;;;;;;;;;;5086200;28;20304;-65
2021/12/11 16:05:24;;;;;;;;;;;;;;;;;;5083705;28;19927;-66
2021/12/11 16:07:49;;;;;;;;;;;;;;;;;;5085058;28;20077;-65
2021/12/11 16:10:14;;;;;;;;;;;;;;;;;;5074245;28;20066;-65
2021/12/11 16:12:39;;;;;;;;;;;;;;;;;;5077022;28;20324;-66
2021/12/11 16:15:04;;;;;;;;;;;;;;;;;;5085968;28;20420;-66
2021/12/11 16:17:29;;;;;;;;;;;;;;;;;;5077262;28;19949;-66
2021/12/11 16:20:00;;;;;;;;;;;;;;;;;;5077703;28;20062;-66
2021/12/11 16:22:25;;;;;;;;;;;;;;;;;;5077117;28;19924;-66
2021/12/11 16:24:51;;;;;;;;;;;;;;;;;;5076378;28;19969;-65
2021/12/11 16:27:16;;;;;;;;;;;;;;;;;;5078760;28;19919;-66
2021/12/11 16:29:41;;;;;;;;;;;;;;;;;;5074039;28;19912;-65
2021/12/11 16:32:06;;;;;;;;;;;;;;;;;;5081345;28;20069;-65
2021/12/11 16:34:31;;;;;;;;;;;;;;;;;;5081164;28;19947;-65
2021/12/11 16:36:56;;;;;;;;;;;;;;;;;;5087467;28;19935;-65
2021/12/11 16:39:21;;;;;;;;;;;;;;;;;;5081228;28;19913;-66
2021/12/11 16:41:47;;;;;;;;;;;;;;;;;;5090376;28;19927;-65
2021/12/11 16:44:12;;;;;;;;;;;;;;;;;;5085585;28;20368;-65
2021/12/11 16:46:37;;;;;;;;;;;;;;;;;;5086723;28;19912;-65